createdAt,value
2018-12-11T00:01:36.758Z,64.64
2018-12-11T00:04:06.403Z,64.88
2018-12-11T00:06:36.482Z,65.01
2018-12-11T00:09:07.017Z,65.52
2018-12-11T00:11:36.592Z,65.28
2018-12-11T00:14:06.360Z,65.33
2018-12-11T00:16:36.261Z,65.41
2018-12-11T00:19:06.247Z,64.72
2018-12-11T00:21:35.997Z,65.80
2018-12-11T00:24:05.754Z,65.98
2018-12-11T00:26:35.934Z,65.84
2018-12-11T00:29:05.475Z,66.53
2018-12-11T00:31:36.026Z,66.73
2018-12-11T00:34:05.695Z,66.63
2018-12-11T00:36:35.319Z,67.09
2018-12-11T00:39:06.224Z,67.53
2018-12-11T00:41:36.127Z,67.63
2018-12-11T00:44:05.856Z,67.96
2018-12-11T00:46:35.434Z,67.47
2018-12-11T00:49:05.143Z,66.10
2018-12-11T00:51:35.493Z,65.50
2018-12-11T00:54:05.289Z,65.55
2018-12-11T00:56:34.928Z,64.70
2018-12-11T00:59:04.972Z,64.25
2018-12-11T01:01:34.600Z,63.65
2018-12-11T01:04:04.511Z,64.63
2018-12-11T01:06:34.073Z,64.94
2018-12-11T01:09:03.766Z,65.75
2018-12-11T01:11:33.428Z,65.80
2018-12-11T01:14:03.457Z,66.57
2018-12-11T01:16:33.165Z,66.44
2018-12-11T01:19:02.668Z,66.97
2018-12-11T01:21:32.343Z,66.62
2018-12-11T01:24:01.914Z,67.31
2018-12-11T01:26:31.481Z,66.76
2018-12-11T01:29:01.253Z,66.71
2018-12-11T01:31:30.875Z,66.50
2018-12-11T01:34:00.720Z,66.53
2018-12-11T01:36:30.256Z,66.88
2018-12-11T01:39:00.145Z,67.41
2018-12-11T01:41:29.850Z,67.10
2018-12-11T01:43:59.486Z,67.13
2018-12-11T01:46:29.121Z,66.76
2018-12-11T01:48:59.034Z,66.76
2018-12-11T01:51:28.844Z,66.63
2018-12-11T01:53:58.465Z,67.06
2018-12-11T01:56:28.100Z,67.21
2018-12-11T01:58:57.984Z,66.52
2018-12-11T02:01:27.694Z,66.92
2018-12-11T02:03:57.426Z,67.37
2018-12-11T02:06:27.103Z,67.14
2018-12-11T02:08:57.190Z,67.89
2018-12-11T02:11:26.886Z,68.02
2018-12-11T02:13:56.635Z,68.83
2018-12-11T02:16:26.350Z,68.56
2018-12-11T02:18:56.210Z,69.14
2018-12-11T02:21:25.729Z,69.21
2018-12-11T02:23:55.289Z,69.60
2018-12-11T02:26:25.047Z,69.64
2018-12-11T02:28:54.868Z,69.79
2018-12-11T02:31:24.369Z,69.78
2018-12-11T02:33:54.102Z,69.88
2018-12-11T02:36:23.545Z,69.53
2018-12-11T02:38:53.337Z,69.57
2018-12-11T02:41:23.738Z,69.63
2018-12-11T02:43:53.497Z,69.52
2018-12-11T02:46:23.297Z,69.12
2018-12-11T02:48:53.189Z,68.87
2018-12-11T02:51:23.059Z,68.48
2018-12-11T02:53:52.852Z,68.72
2018-12-11T02:56:22.466Z,69.29
2018-12-11T02:58:52.358Z,69.06
2018-12-11T03:01:22.208Z,68.96
2018-12-11T03:03:52.094Z,69.38
2018-12-11T03:06:21.983Z,69.77
2018-12-11T03:08:51.564Z,70.25
2018-12-11T03:11:21.481Z,69.63
2018-12-11T03:13:51.138Z,70.46
2018-12-11T03:16:20.925Z,70.57
2018-12-11T03:18:50.845Z,70.70
2018-12-11T03:21:20.640Z,71.32
2018-12-11T03:23:50.786Z,71.19
2018-12-11T03:26:20.562Z,70.95
2018-12-11T03:28:50.394Z,71.26
2018-12-11T03:31:20.296Z,70.82
2018-12-11T03:33:49.888Z,68.63
2018-12-11T03:36:20.008Z,67.18
2018-12-11T03:38:51.315Z,67.19
2018-12-11T03:41:21.171Z,66.07
2018-12-11T03:43:50.604Z,66.99
2018-12-11T03:46:20.319Z,67.23
2018-12-11T03:48:50.321Z,67.08
2018-12-11T03:51:20.934Z,67.28
2018-12-11T03:53:50.767Z,67.38
2018-12-11T03:56:20.441Z,67.86
2018-12-11T03:58:50.086Z,68.42
2018-12-11T04:01:19.731Z,68.65
2018-12-11T04:03:49.454Z,68.85
2018-12-11T04:06:19.314Z,68.43
2018-12-11T04:08:49.131Z,69.55
2018-12-11T04:11:18.796Z,69.61
2018-12-11T04:13:48.540Z,69.93
2018-12-11T04:16:18.255Z,70.14
2018-12-11T04:18:47.917Z,69.56
2018-12-11T04:21:18.026Z,67.47
2018-12-11T04:23:47.580Z,67.25
2018-12-11T04:26:17.263Z,67.10
2018-12-11T04:28:46.700Z,68.23
2018-12-11T04:31:16.456Z,66.36
2018-12-11T04:33:46.149Z,65.43
2018-12-11T04:36:15.797Z,64.57
2018-12-11T04:38:45.475Z,63.59
2018-12-11T04:41:15.580Z,63.02
2018-12-11T04:43:45.810Z,63.58
2018-12-11T04:46:15.471Z,64.29
2018-12-11T04:48:45.112Z,65.37
2018-12-11T04:51:14.899Z,65.36
2018-12-11T04:53:44.886Z,65.23
2018-12-11T04:56:14.777Z,65.65
2018-12-11T04:58:44.384Z,65.39
2018-12-11T05:01:14.124Z,64.81
2018-12-11T05:03:43.699Z,63.87
2018-12-11T05:06:13.563Z,64.37
2018-12-11T05:08:43.107Z,63.48
2018-12-11T05:11:12.789Z,63.44
2018-12-11T05:13:42.451Z,63.10
2018-12-11T05:16:11.898Z,62.05
2018-12-11T05:18:41.654Z,61.83
2018-12-11T05:21:11.252Z,62.08
2018-12-11T05:23:40.920Z,61.56
2018-12-11T05:26:10.479Z,61.66
2018-12-11T05:28:40.034Z,61.00
2018-12-11T05:31:09.566Z,61.17
2018-12-11T05:33:39.346Z,60.98
2018-12-11T05:36:08.780Z,61.33
2018-12-11T05:38:38.506Z,60.83
2018-12-11T05:41:08.421Z,61.30
2018-12-11T05:43:38.247Z,61.07
2018-12-11T05:46:08.146Z,61.38
2018-12-11T05:48:38.031Z,61.38
2018-12-11T05:51:07.444Z,61.41
2018-12-11T05:53:36.786Z,62.01
2018-12-11T05:56:06.801Z,63.07
2018-12-11T05:58:36.553Z,61.66
2018-12-11T06:01:06.315Z,62.62
2018-12-11T06:03:35.949Z,61.89
2018-12-11T06:06:05.885Z,61.72
2018-12-11T06:08:35.615Z,61.62
2018-12-11T06:11:05.623Z,60.96
2018-12-11T06:13:35.295Z,60.92
2018-12-11T06:16:04.960Z,61.05
2018-12-11T06:18:34.641Z,60.94
2018-12-11T06:21:04.404Z,59.47
2018-12-11T06:23:34.134Z,60.55
2018-12-11T06:26:03.955Z,59.78
2018-12-11T06:28:33.757Z,58.57
2018-12-11T06:31:03.462Z,59.15
2018-12-11T06:33:33.723Z,59.59
2018-12-11T06:36:03.389Z,57.77
2018-12-11T06:38:32.821Z,57.61
2018-12-11T06:41:02.610Z,57.80
2018-12-11T06:43:32.274Z,56.98
2018-12-11T06:46:02.368Z,56.03
2018-12-11T06:48:32.103Z,55.20
2018-12-11T06:51:01.925Z,55.69
2018-12-11T06:53:31.628Z,55.79
2018-12-11T06:56:01.388Z,55.65
2018-12-11T06:58:31.172Z,55.72
2018-12-11T07:01:00.899Z,54.77
2018-12-11T07:03:30.766Z,55.08
2018-12-11T07:06:00.637Z,55.20
2018-12-11T07:08:30.174Z,54.05
2018-12-11T07:11:01.018Z,54.68
2018-12-11T07:13:30.623Z,54.87
2018-12-11T07:16:00.443Z,53.64
2018-12-11T07:18:30.202Z,53.37
2018-12-11T07:21:00.074Z,53.13
2018-12-11T07:23:29.583Z,46.48
2018-12-11T07:25:59.480Z,39.35
2018-12-11T07:28:29.466Z,36.12
2018-12-11T07:30:59.139Z,34.44
2018-12-11T07:33:28.938Z,32.28
2018-12-11T07:35:58.635Z,31.41
2018-12-11T07:38:28.690Z,29.94
2018-12-11T07:40:58.375Z,28.69
2018-12-11T07:43:28.286Z,28.39
2018-12-11T07:45:57.912Z,27.69
2018-12-11T07:48:27.518Z,27.84
2018-12-11T07:50:57.241Z,25.62
2018-12-11T07:53:27.645Z,25.98
2018-12-11T07:56:00.398Z,24.58
2018-12-11T07:58:29.501Z,24.19
2018-12-11T08:00:59.687Z,24.81
2018-12-11T08:03:29.458Z,23.70
2018-12-11T08:05:58.938Z,24.14
2018-12-11T08:08:28.910Z,25.00
2018-12-11T08:10:58.719Z,24.35
2018-12-11T08:13:28.498Z,23.88
2018-12-11T08:15:58.362Z,25.11
2018-12-11T08:18:28.468Z,24.12
2018-12-11T08:20:57.966Z,24.23
2018-12-11T08:23:27.700Z,23.39
2018-12-11T08:25:57.608Z,24.18
2018-12-11T08:28:27.749Z,24.12
2018-12-11T08:30:57.550Z,23.09
2018-12-11T08:33:27.279Z,24.31
2018-12-11T08:35:57.118Z,23.68
2018-12-11T08:38:27.386Z,23.23
2018-12-11T08:41:07.907Z,22.73
2018-12-11T08:43:37.740Z,22.87
2018-12-11T08:46:07.682Z,23.01
2018-12-11T08:48:37.322Z,22.84
2018-12-11T08:51:06.725Z,22.81
2018-12-11T08:53:36.288Z,22.63
2018-12-11T08:56:05.750Z,22.22
2018-12-11T08:58:35.113Z,22.33
2018-12-11T09:01:04.697Z,21.62
2018-12-11T09:03:34.043Z,22.61
2018-12-11T09:06:03.606Z,22.71
2018-12-11T09:08:33.009Z,22.51
2018-12-11T09:11:02.448Z,22.72
2018-12-11T09:13:31.808Z,23.48
2018-12-11T09:16:01.392Z,23.64
2018-12-11T09:18:30.844Z,26.51
2018-12-11T09:21:00.241Z,25.48
2018-12-11T09:23:29.899Z,24.86
2018-12-11T09:25:59.234Z,23.89
2018-12-11T09:28:28.650Z,23.52
2018-12-11T09:30:58.068Z,23.94
2018-12-11T09:33:27.604Z,23.96
2018-12-11T09:35:57.368Z,24.37
2018-12-11T09:38:26.796Z,23.90
2018-12-11T09:40:56.120Z,23.07
2018-12-11T09:43:25.760Z,23.33
2018-12-11T09:45:55.280Z,22.86
2018-12-11T09:48:24.872Z,23.18
2018-12-11T09:50:54.297Z,23.42
2018-12-11T09:53:23.885Z,23.78
2018-12-11T09:55:53.296Z,23.32
2018-12-11T09:58:22.733Z,24.26
2018-12-11T10:00:53.182Z,24.02
2018-12-11T10:03:22.609Z,23.10
2018-12-11T10:09:08.474Z,24.27
2018-12-11T10:11:39.173Z,23.58
2018-12-11T10:14:08.958Z,23.47
2018-12-11T10:16:38.183Z,23.69
2018-12-11T10:19:07.774Z,22.88
2018-12-11T10:21:37.276Z,22.39
2018-12-11T10:24:06.696Z,23.49
2018-12-11T10:26:36.297Z,23.77
2018-12-11T10:29:05.785Z,25.72
2018-12-11T10:31:35.201Z,26.57
2018-12-11T10:34:04.586Z,25.45
2018-12-11T10:36:34.196Z,26.63
2018-12-11T10:39:03.948Z,27.93
2018-12-11T10:41:33.431Z,27.13
2018-12-11T10:44:02.805Z,25.96
2018-12-11T10:46:33.914Z,25.01
2018-12-11T10:49:03.571Z,23.68
2018-12-11T10:51:33.196Z,24.46
2018-12-11T10:54:02.609Z,22.96
2018-12-11T10:56:32.207Z,23.77
2018-12-11T10:59:01.468Z,24.71
2018-12-11T11:01:33.263Z,24.55
2018-12-11T11:04:02.624Z,24.83
2018-12-11T11:06:32.165Z,24.99
2018-12-11T11:09:01.550Z,24.95
2018-12-11T11:11:31.112Z,25.14
2018-12-11T11:14:00.437Z,24.72
2018-12-11T11:16:29.822Z,24.71
2018-12-11T11:18:59.523Z,25.17
2018-12-11T11:21:28.759Z,25.13
2018-12-11T11:23:58.431Z,25.27
2018-12-11T11:26:27.963Z,25.54
2018-12-11T11:28:57.340Z,24.86
2018-12-11T11:31:26.711Z,23.89
2018-12-11T11:33:58.476Z,23.48
2018-12-11T11:36:27.909Z,24.29
2018-12-11T11:38:57.544Z,24.64
2018-12-11T11:41:26.876Z,25.35
2018-12-11T11:43:57.853Z,24.81
2018-12-11T11:46:27.720Z,25.78
2018-12-11T11:48:57.310Z,26.35
2018-12-11T11:51:26.640Z,26.83
2018-12-11T11:53:56.016Z,28.24
2018-12-11T11:56:25.696Z,27.85
2018-12-11T11:58:55.275Z,27.73
2018-12-11T12:01:24.620Z,28.28
2018-12-11T12:03:54.084Z,27.79
2018-12-11T12:06:23.788Z,28.14
2018-12-11T12:08:59.197Z,28.27
2018-12-11T12:11:26.833Z,28.11
2018-12-11T12:13:57.420Z,28.88
2018-12-11T12:16:27.054Z,29.52
2018-12-11T12:18:57.316Z,29.97
2018-12-11T12:21:27.864Z,31.05
2018-12-11T12:23:57.365Z,31.29
2018-12-11T12:26:28.390Z,31.44
2018-12-11T12:28:58.254Z,32.58
2018-12-11T12:31:27.973Z,31.61
2018-12-11T12:33:58.080Z,31.82
2018-12-11T12:36:27.675Z,30.95
2018-12-11T12:38:57.216Z,31.25
2018-12-11T12:41:26.755Z,31.79
2018-12-11T12:43:56.391Z,32.30
2018-12-11T12:46:26.227Z,33.39
2018-12-11T12:48:56.087Z,34.11
2018-12-11T12:51:25.549Z,35.17
2018-12-11T12:53:55.153Z,35.22
2018-12-11T12:56:28.658Z,35.71
2018-12-11T12:58:58.312Z,33.55
2018-12-11T13:01:27.758Z,33.69
2018-12-11T13:03:57.598Z,34.65
2018-12-11T13:06:27.749Z,34.30
2018-12-11T13:08:57.742Z,34.71
2018-12-11T13:11:27.470Z,35.35
2018-12-11T13:13:56.985Z,34.82
2018-12-11T13:16:26.582Z,34.55
2018-12-11T13:18:56.177Z,35.73
2018-12-11T13:21:26.010Z,35.13
2018-12-11T13:23:55.692Z,35.38
2018-12-11T13:26:25.429Z,34.75
2018-12-11T13:28:54.966Z,34.40
2018-12-11T13:31:24.677Z,34.30
2018-12-11T13:33:54.175Z,34.61
2018-12-11T13:36:23.948Z,34.75
2018-12-11T13:38:54.081Z,35.32
2018-12-11T13:41:23.672Z,35.60
2018-12-11T13:43:53.799Z,35.32
2018-12-11T13:46:23.395Z,35.98
2018-12-11T13:48:52.953Z,35.77
2018-12-11T13:51:22.672Z,35.15
2018-12-11T13:53:52.277Z,35.86
2018-12-11T13:56:22.124Z,35.98
2018-12-11T13:58:51.946Z,35.93
2018-12-11T14:01:21.524Z,36.49
2018-12-11T14:03:51.509Z,36.12
2018-12-11T14:06:21.129Z,35.93
2018-12-11T14:08:50.679Z,37.37
2018-12-11T14:11:20.266Z,37.26
2018-12-11T14:13:49.799Z,38.00
2018-12-11T14:16:19.452Z,38.63
2018-12-11T14:18:49.190Z,39.14
2018-12-11T14:21:18.868Z,39.36
2018-12-11T14:23:48.646Z,39.92
2018-12-11T14:26:18.182Z,40.72
2018-12-11T14:28:47.719Z,41.17
2018-12-11T14:31:17.561Z,41.16
2018-12-11T14:33:47.418Z,42.19
2018-12-11T14:36:17.113Z,42.76
2018-12-11T14:38:47.120Z,42.65
2018-12-11T14:41:16.940Z,43.00
2018-12-11T14:43:47.452Z,43.53
2018-12-11T14:46:16.922Z,43.69
2018-12-11T14:48:46.614Z,44.38
2018-12-11T14:51:16.119Z,44.20
2018-12-11T14:53:45.994Z,44.67
2018-12-11T14:56:16.711Z,45.31
2018-12-11T14:58:46.539Z,45.31
2018-12-11T15:01:16.050Z,46.09
2018-12-11T15:03:45.637Z,46.30
2018-12-11T15:06:15.265Z,46.33
2018-12-11T15:08:45.307Z,46.49
2018-12-11T15:11:14.909Z,46.80
2018-12-11T15:13:44.417Z,46.83
2018-12-11T15:16:14.434Z,46.96
2018-12-11T15:18:45.307Z,47.16
2018-12-11T15:21:14.902Z,46.61
2018-12-11T15:23:44.474Z,47.29
2018-12-11T15:26:14.255Z,47.43
2018-12-11T15:28:44.265Z,48.17
2018-12-11T15:31:13.804Z,47.80
2018-12-11T15:33:43.335Z,48.23
2018-12-11T15:36:13.943Z,47.92
2018-12-11T15:38:43.772Z,48.41
2018-12-11T15:41:13.706Z,49.02
2018-12-11T15:43:44.498Z,49.10
2018-12-11T15:46:15.017Z,49.35
2018-12-11T15:48:45.271Z,49.32
2018-12-11T15:51:15.249Z,49.29
2018-12-11T15:53:45.135Z,49.91
2018-12-11T15:56:14.771Z,50.24
2018-12-11T15:58:44.295Z,50.40
2018-12-11T16:01:13.857Z,50.96
2018-12-11T16:03:43.362Z,52.55
2018-12-11T16:06:12.845Z,53.02
2018-12-11T16:08:42.591Z,53.08
2018-12-11T16:11:12.319Z,53.01
2018-12-11T16:13:41.945Z,53.37
2018-12-11T16:16:12.293Z,53.36
2018-12-11T16:18:41.940Z,53.66
2018-12-11T16:21:11.482Z,53.21
2018-12-11T16:23:40.908Z,53.15
2018-12-11T16:26:10.488Z,52.98
2018-12-11T16:28:40.525Z,52.20
2018-12-11T16:31:10.005Z,52.62
2018-12-11T16:33:39.542Z,53.13
2018-12-11T16:36:09.391Z,53.15
2018-12-11T16:38:39.047Z,53.15
2018-12-11T16:41:08.489Z,54.21
2018-12-11T16:43:38.090Z,55.28
2018-12-11T16:46:07.786Z,54.77
2018-12-11T16:48:37.796Z,55.68
2018-12-11T16:51:07.438Z,56.06
2018-12-11T16:53:37.070Z,56.60
2018-12-11T16:56:07.402Z,57.78
2018-12-11T16:58:37.279Z,58.26
2018-12-11T17:01:07.131Z,58.85
2018-12-11T17:03:36.644Z,59.23
2018-12-11T17:06:06.111Z,58.70
2018-12-11T17:08:35.673Z,58.45
2018-12-11T17:11:05.364Z,58.15
2018-12-11T17:13:35.347Z,57.99
2018-12-11T17:16:04.972Z,58.62
2018-12-11T17:18:34.498Z,59.88
2018-12-11T17:21:04.375Z,61.07
2018-12-11T17:23:34.271Z,61.29
2018-12-11T17:26:03.762Z,61.49
2018-12-11T17:28:33.510Z,61.66
2018-12-11T17:31:03.107Z,62.49
2018-12-11T17:33:32.855Z,62.87
2018-12-11T17:36:02.242Z,62.87
2018-12-11T17:38:31.969Z,62.99
2018-12-11T17:41:01.526Z,62.95
2018-12-11T17:43:31.277Z,62.78
2018-12-11T17:46:00.807Z,62.97
2018-12-11T17:48:30.430Z,63.48
2018-12-11T17:51:00.218Z,63.54
2018-12-11T17:53:30.192Z,64.05
2018-12-11T17:55:59.748Z,64.51
2018-12-11T17:58:29.356Z,64.58
2018-12-11T18:00:58.903Z,64.35
2018-12-11T18:03:28.318Z,64.08
2018-12-11T18:05:57.895Z,64.95
2018-12-11T18:08:27.835Z,64.87
2018-12-11T18:10:57.490Z,64.58
2018-12-11T18:13:27.062Z,65.44
2018-12-11T18:15:56.674Z,65.84
2018-12-11T18:18:26.297Z,65.63
2018-12-11T18:20:55.972Z,66.85
2018-12-11T18:23:25.707Z,67.26
2018-12-11T18:25:55.309Z,67.44
2018-12-11T18:28:25.070Z,67.49
2018-12-11T18:30:54.532Z,68.26
2018-12-11T18:33:24.088Z,68.42
2018-12-11T18:35:53.623Z,68.71
2018-12-11T18:38:23.125Z,68.01
2018-12-11T18:40:52.760Z,68.47
2018-12-11T18:43:22.637Z,68.12
2018-12-11T18:45:52.063Z,67.52
2018-12-11T18:48:21.605Z,67.92
2018-12-11T18:50:51.420Z,67.26
2018-12-11T18:53:20.831Z,67.45
2018-12-11T18:55:50.383Z,67.87
2018-12-11T18:58:20.375Z,67.16
2018-12-11T19:00:49.904Z,67.83
2018-12-11T19:03:20.000Z,67.04
2018-12-11T19:05:49.530Z,67.09
2018-12-11T19:08:19.242Z,66.54
2018-12-11T19:10:48.912Z,67.32
2018-12-11T19:13:18.878Z,68.62
2018-12-11T19:15:49.163Z,68.26
2018-12-11T19:18:18.680Z,67.70
2018-12-11T19:20:48.465Z,68.68
2018-12-11T19:23:27.031Z,70.07
2018-12-11T19:25:56.952Z,70.78
2018-12-11T19:28:26.482Z,70.83
2018-12-11T19:30:56.169Z,70.99
2018-12-11T19:33:25.879Z,71.29
2018-12-11T19:35:55.565Z,70.97
2018-12-11T19:38:25.492Z,69.87
2018-12-11T19:40:55.144Z,69.72
2018-12-11T19:43:24.833Z,69.42
2018-12-11T19:45:55.193Z,69.27
2018-12-11T19:48:24.853Z,68.64
2018-12-11T19:50:54.253Z,69.37
2018-12-11T19:53:23.740Z,70.36
2018-12-11T19:55:53.282Z,71.15
2018-12-11T19:58:23.087Z,71.55
2018-12-11T20:00:52.908Z,71.04
2018-12-11T20:03:22.696Z,72.55
2018-12-11T20:05:52.529Z,72.68
2018-12-11T20:08:22.272Z,72.36
2018-12-11T20:10:56.453Z,71.63
2018-12-11T20:13:25.987Z,71.34
2018-12-11T20:15:55.515Z,71.69
2018-12-11T20:18:25.383Z,71.59
2018-12-11T20:20:56.712Z,72.77
2018-12-11T20:23:26.230Z,73.49
2018-12-11T20:25:55.671Z,73.20
2018-12-11T20:28:26.341Z,73.19
2018-12-11T20:30:56.070Z,73.53
2018-12-11T20:33:26.388Z,74.23
2018-12-11T20:35:56.615Z,74.73
2018-12-11T20:38:26.729Z,75.11
2018-12-11T20:40:56.310Z,76.49
2018-12-11T20:43:26.298Z,76.85
2018-12-11T20:45:56.154Z,77.63
2018-12-11T20:48:26.379Z,78.43
2018-12-11T20:50:56.978Z,78.88
2018-12-11T20:53:26.540Z,79.35
2018-12-11T20:55:56.456Z,79.37
2018-12-11T20:58:26.278Z,79.33
2018-12-11T21:00:56.120Z,79.29
2018-12-11T21:03:26.117Z,79.31
2018-12-11T21:05:56.022Z,78.78
2018-12-11T21:08:28.007Z,79.49
2018-12-11T21:10:58.205Z,79.57
2018-12-11T21:13:28.094Z,79.45
2018-12-11T21:15:57.961Z,79.58
2018-12-11T21:18:27.577Z,80.01
2018-12-11T21:20:57.621Z,79.69
2018-12-11T21:23:27.306Z,79.69
2018-12-11T21:25:57.125Z,79.01
2018-12-11T21:28:27.301Z,79.10
2018-12-11T21:30:56.949Z,78.88
2018-12-11T21:33:27.008Z,78.38
2018-12-11T21:35:56.773Z,78.93
2018-12-11T21:38:26.544Z,79.61
2018-12-11T21:40:56.648Z,78.88
2018-12-11T21:43:26.717Z,79.13
2018-12-11T21:45:56.862Z,78.68
2018-12-11T21:48:27.345Z,79.22
2018-12-11T21:50:57.272Z,79.23
2018-12-11T21:53:28.190Z,78.62
2018-12-11T21:55:59.596Z,78.06
2018-12-11T21:58:30.118Z,78.04
2018-12-11T22:01:05.970Z,78.11
2018-12-11T22:03:37.726Z,77.95
2018-12-11T22:06:10.658Z,78.49
2018-12-11T22:08:42.591Z,79.42
2018-12-11T22:11:20.864Z,78.28
2018-12-11T22:14:06.467Z,78.26
2018-12-11T22:16:39.009Z,80.08
2018-12-11T22:19:16.739Z,80.30
2018-12-11T22:21:54.613Z,80.41
2018-12-11T22:24:24.401Z,81.42
2018-12-11T22:26:53.994Z,81.69
2018-12-11T22:29:23.712Z,82.04
2018-12-11T22:31:53.615Z,82.45
2018-12-11T22:34:23.356Z,83.13
2018-12-11T22:36:53.130Z,83.25
2018-12-11T22:39:23.801Z,84.17
2018-12-11T22:41:53.875Z,84.09
2018-12-11T22:44:23.415Z,84.67
2018-12-11T22:46:53.011Z,84.49
2018-12-11T22:49:23.108Z,85.40
2018-12-11T22:51:53.168Z,85.92
2018-12-11T22:54:23.182Z,86.74
2018-12-11T22:56:53.127Z,86.24
2018-12-11T22:59:22.940Z,86.46
2018-12-11T23:01:52.837Z,86.54
2018-12-11T23:04:22.596Z,86.55
2018-12-11T23:06:52.947Z,87.59
2018-12-11T23:09:22.634Z,87.73
2018-12-11T23:11:52.611Z,87.82
2018-12-11T23:14:25.288Z,87.55
2018-12-11T23:16:54.952Z,87.07
2018-12-11T23:19:24.932Z,87.10
2018-12-11T23:21:54.929Z,86.82
2018-12-11T23:24:24.917Z,87.59
2018-12-11T23:26:55.037Z,87.81
2018-12-11T23:29:25.443Z,87.40
2018-12-11T23:31:55.293Z,87.74
2018-12-11T23:34:25.212Z,86.79
2018-12-11T23:36:55.005Z,86.29
2018-12-11T23:39:24.792Z,86.58
2018-12-11T23:41:54.777Z,87.77
2018-12-11T23:44:24.620Z,87.45
2018-12-11T23:46:54.720Z,87.27
2018-12-11T23:49:24.505Z,87.62
2018-12-11T23:51:54.220Z,88.21
2018-12-11T23:54:24.145Z,89.11
2018-12-11T23:56:53.905Z,88.88
2018-12-11T23:59:28.989Z,88.69
